• Join FlightAware (Why Join?)
  • Login
  • US Flag 
11:04PM EDT


 

Airport Tracker/Info


-or-


 

Live Flight TrackerFlight Track Log ✈ CHQ6401 ✈ 15-Jun-2013 ✈ KDTW - KSYR

Flight Track Log - Related Links

Times and Time Zones

All times are in EDT time to prevent confusion due to time zone crossing. See the CHQ6401 flight status page for this flight to view local times or setup timezone preferences in your user account.

Time Position Orientation Groundspeed Altitude Reporting Facility
EDT Latitude Longitude Course Direction KTS MPH feet Rate Location/Type
02:28PM 42.2017 -83.3553 90° East 154 177 1,400  Level Cleveland Center
02:29PM 42.1664 -83.3511 175° South 189 217 2,900 2,220 Climbing Cleveland Center
02:30PM 42.1208 -83.3378 168° South 224 258 5,100 2,400 Climbing Cleveland Center
02:31PM 42.0878 -83.2386 114° Southeast 262 302 8,100 2,040 Climbing Cleveland Center
02:32PM 42.3106 -82.7804 75° East  Level FlightAware Approximate
02:33PM 42.3282 -82.6351 82° East  Level FlightAware Approximate
02:33PM 42.1303 -83.1031 67° East 280 322 10,500  Level Cleveland Center
02:34PM 42.3500 -82.4918 90° East  Level FlightAware Approximate
02:34PM 42.1703 -82.9925 64° Northeast 304 350 11,800  Level Cleveland Center
02:35PM 42.2142 -82.8764 63° Northeast 331 381 13,600 1,800 Climbing Cleveland Center
02:36PM 42.2606 -82.7492 64° Northeast 344 396 15,400 1,740 Climbing Cleveland Center
02:37PM 42.2817 -82.6208 77° East 356 410 17,100 1,500 Climbing Cleveland Center
02:38PM 42.2944 -82.4750 83° East 368 423 18,400 1,320 Climbing Cleveland Center
02:39PM 42.3053 -82.3267 84° East 382 440 19,800 1,500 Climbing Cleveland Center
02:40PM 42.3158 -82.1781 84° East 388 447 21,400 1,500 Climbing Cleveland Center
02:41PM 42.3261 -82.0267 85° East 394 453 22,900 1,260 Climbing Cleveland Center
02:42PM 42.3383 -81.8753 84° East 406 467 24,000 600 Climbing Cleveland Center
02:43PM 42.3506 -81.7125 84° East 421 484 24,200 720 Climbing Cleveland Center
02:44PM 42.3603 -81.5414 86° East 441 507 25,500 1,140 Climbing Cleveland Center
02:45PM 42.3719 -81.3897 84° East 448 516 26,500 720 Climbing Cleveland Center
02:46PM 42.3814 -81.2211 86° East 448 516 27,000 240 Climbing Cleveland Center
02:47PM 42.3925 -81.0414 85° East 466 536 27,000  Level Cleveland Center
02:48PM 42.4056 -80.8617 84° East 482 555 27,000  Level Cleveland Center
02:49PM 42.4228 -80.6817 83° East 477 549 27,000  Level Cleveland Center
02:50PM 42.4539 -80.4875 78° East 477 549 27,000  Level Cleveland Center
02:51PM 42.4828 -80.3158 77° East 472 543 27,000  Level Cleveland Center
02:52PM 42.5094 -80.1522 77° East 453 521 27,000  Level Cleveland Center
02:53PM 42.5358 -79.9914 77° East 442 509 27,000  Level Cleveland Center
02:54PM 42.5619 -79.8417 77° East 442 509 27,000  Level Cleveland Center
02:55PM 42.5881 -79.6836 77° East 442 509 27,000  Level Cleveland Center
02:56PM 42.6136 -79.5225 78° East 430 495 27,000  Level Cleveland Center
02:57PM 42.6414 -79.3583 77° East 437 503 27,000  Level Cleveland Center
02:58PM 42.6664 -79.1911 78° East 437 503 27,000 -120 Level Cleveland Center
02:59PM 42.6936 -79.0211 78° East 448 516 26,800 -600 Descending Cleveland Center
03:00PM 42.7203 -78.8564 78° East 453 521 25,900 -900 Descending Cleveland Center
03:01PM 42.7469 -78.6861 78° East 453 521 25,000 -960 Descending Cleveland Center
03:02PM 42.7731 -78.5183 78° East 453 521 24,000 -960 Descending Cleveland Center
03:03PM 42.7972 -78.3506 79° East 453 521 23,100 -540 Descending Cleveland Center
03:04PM 42.8231 -78.1856 78° East 448 516 23,000 -240 Descending Cleveland Center
03:05PM 42.8483 -78.0117 79° East 441 507 22,700 -960 Descending Cleveland Center
03:06PM 42.8697 -77.8522 80° East 430 495 21,100 -1,740 Descending Cleveland Center
03:07PM 42.8931 -77.6983 78° East 420 483 19,300 -1,920 Descending Cleveland Center
03:08PM 42.9144 -77.5497 79° East 414 476 17,300 -2,100 Descending Cleveland Center
03:09PM 42.9333 -77.4042 80° East 403 464 15,100 -2,100 Descending Cleveland Center
03:10PM 42.9544 -77.2611 79° East 386 444 13,100 -1,320 Descending Cleveland Center
03:12PM 42.9928 -76.9997 79° East 354 407 11,000 -720 Descending Boston Center
03:13PM 43.0114 -76.8419 81° East 359 413 11,000 -60 Level Boston Center
03:14PM 43.0000 -76.7078 97° East 353 406 10,900 -660 Descending Boston Center
03:15PM 42.9878 -76.5819 98° East 303 349 9,700 -1,380 Descending Boston Center
03:16PM 42.9878 -76.4711 90° East 287 330 8,100 -1,560 Descending Boston Center
03:17PM 42.9872 -76.3631 90° East 286 329 6,600 -1,560 Descending Boston Center
03:18PM 42.9889 -76.2581 89° East 284 327 5,000 -1,560 Descending Boston Center
03:19PM 42.9900 -76.1617 89° East 278 320 3,500 -1,500 Descending Boston Center